Aérodrome :
LOGIN :

S'inscrire | Disclaimer

   EN    FR    IT 

 










Légende :    VFR   VFR Marginal   IFR   IFR Intensif   IFR Très Intensif
Visi : 
Plafond : 
>= 8 km
>= 3000ft
5 à 8 km
1000 à 3000 ft
1500m à 5 km
500 à 1000 ft
800 à 1500m
200 à 500 ft
< 800m
< 200 ft
Symboles :   Orages  Brouillard  Fortes neiges  Fortes précipitations  Vent > 20 kt
SIGMETs :   Divers  Orages  Givrage  Turbulence  Onde Orograph.  Cendres Volcan.






- Altitude de l'aérodrome : 270 ft
- Code IATA : OXF


EGTK - Oxford (Kidlington)

DERNIER METAR :
  • 221220Z 13010KT 9999 VCSH FEW018 SCT024 09/08 Q0994

METARs EXPIRÉS :
  • 221150Z 12006KT 9000 VCSH SCT011 SCT030 08/08 Q0994
  • 221120Z 11006KT 9999 VCSH SCT015 BKN036 08/08 Q0994
  • 221050Z 12006KT 9999 VCSH FEW014 SCT027 07/07 Q0995
  • 221020Z 13007KT 9999 VCSH FEW018 SCT030 07/07 Q0995
  • 220950Z 14007KT 9999 VCSH FEW025 SCT042 07/07 Q0995
  • 220920Z 13007KT 9999 SCT040 06/06 Q0995

TAF TAF EGTK
Valide du 22 à 12h jusqu'au 22 à 21h UTC


221058Z 2212/2221 13009KT 9999 SCT025
TEMPO 2212/2216 7000 SHRA BKN014
TEMPO 2216/2221 BKN014



MET'MAP, la Météo Aéronautique d'un coup d'oeil ! - Copyright ORBIFLY Décembre 2007 - Disclaimer

ORBIFLY MET'MAP TEAM :

Programmation & Développement : Alexandra Zaïnal
Conception & Développement : Baudouin d'Aumeries
Co-Programmation & Développement : Marc-Olivier Méhu
Soutien technique & logistique : Manuel Goepfert

Contact : metmap@orbifly.com




SOURCES & CREDITS :

   NOAA